sensor_id;sensor_type;location;lat;lon;timestamp;P1;durP1;ratioP1;P2;durP2;ratioP2
51194;SDS011;37259;49.972;19.850;2023-08-12T00:00:43;9.5;;;7.3;;
51194;SDS011;37259;49.972;19.850;2023-08-12T00:01:43;9.5;;;7.3;;
51194;SDS011;37259;49.972;19.850;2023-08-12T00:02:43;9.5;;;7.3;;
51194;SDS011;37259;49.972;19.850;2023-08-12T00:03:43;9.5;;;7.3;;
51194;SDS011;37259;49.972;19.850;2023-08-12T00:04:45;9.5;;;7.3;;
51194;SDS011;37259;49.972;19.850;2023-08-12T00:05:44;9.5;;;7.3;;
51194;SDS011;37259;49.972;19.850;2023-08-12T00:06:43;9.5;;;7.3;;
51194;SDS011;37259;49.972;19.850;2023-08-12T00:07:43;9.5;;;7.3;;
51194;SDS011;37259;49.972;19.850;2023-08-12T00:08:43;9.5;;;7.3;;
51194;SDS011;37259;49.972;19.850;2023-08-12T00:09:43;9.5;;;7.3;;
51194;SDS011;37259;49.972;19.850;2023-08-12T00:10:43;9.5;;;7.3;;
51194;SDS011;37259;49.972;19.850;2023-08-12T00:11:43;9.5;;;7.3;;
51194;SDS011;37259;49.972;19.850;2023-08-12T00:12:43;9.5;;;7.3;;
51194;SDS011;37259;49.972;19.850;2023-08-12T00:13:43;9;;;6.5;;
51194;SDS011;37259;49.972;19.850;2023-08-12T00:14:43;9;;;6.5;;
51194;SDS011;37259;49.972;19.850;2023-08-12T00:15:43;9;;;6.5;;
51194;SDS011;37259;49.972;19.850;2023-08-12T00:16:43;9;;;6.5;;
51194;SDS011;37259;49.972;19.850;2023-08-12T00:17:43;9;;;6.5;;
51194;SDS011;37259;49.972;19.850;2023-08-12T00:18:43;9;;;6.5;;
51194;SDS011;37259;49.972;19.850;2023-08-12T00:19:43;9;;;6.5;;
51194;SDS011;37259;49.972;19.850;2023-08-12T00:20:43;9;;;6.5;;
51194;SDS011;37259;49.972;19.850;2023-08-12T00:21:43;9;;;6.5;;
51194;SDS011;37259;49.972;19.850;2023-08-12T00:22:43;9;;;6.5;;
51194;SDS011;37259;49.972;19.850;2023-08-12T00:23:43;9;;;6.5;;
51194;SDS011;37259;49.972;19.850;2023-08-12T00:24:43;9;;;6.5;;
51194;SDS011;37259;49.972;19.850;2023-08-12T00:25:43;9;;;6.5;;
51194;SDS011;37259;49.972;19.850;2023-08-12T00:26:43;9;;;6.5;;
51194;SDS011;37259;49.972;19.850;2023-08-12T00:27:43;9;;;6.5;;
51194;SDS011;37259;49.972;19.850;2023-08-12T00:28:43;9;;;6.5;;
51194;SDS011;37259;49.972;19.850;2023-08-12T00:29:43;9;;;6.5;;
51194;SDS011;37259;49.972;19.850;2023-08-12T00:30:43;9;;;6.5;;
51194;SDS011;37259;49.972;19.850;2023-08-12T00:31:43;9;;;6.5;;
51194;SDS011;37259;49.972;19.850;2023-08-12T00:32:43;9;;;6.5;;
51194;SDS011;37259;49.972;19.850;2023-08-12T00:33:43;9;;;6.5;;
51194;SDS011;37259;49.972;19.850;2023-08-12T00:34:43;9;;;6.5;;
51194;SDS011;37259;49.972;19.850;2023-08-12T00:35:43;9;;;6.5;;
51194;SDS011;37259;49.972;19.850;2023-08-12T00:36:43;9;;;6.5;;
51194;SDS011;37259;49.972;19.850;2023-08-12T00:37:43;9;;;6.5;;
51194;SDS011;37259;49.972;19.850;2023-08-12T00:38:43;9;;;6.5;;
51194;SDS011;37259;49.972;19.850;2023-08-12T00:39:43;9;;;6.5;;
51194;SDS011;37259;49.972;19.850;2023-08-12T00:40:43;9;;;6.5;;
51194;SDS011;37259;49.972;19.850;2023-08-12T00:41:43;9;;;6.5;;
51194;SDS011;37259;49.972;19.850;2023-08-12T00:42:43;9;;;6.5;;
51194;SDS011;37259;49.972;19.850;2023-08-12T00:43:43;10.1;;;6.5;;
51194;SDS011;37259;49.972;19.850;2023-08-12T00:44:43;10.1;;;6.5;;
51194;SDS011;37259;49.972;19.850;2023-08-12T00:45:43;10.1;;;6.5;;
51194;SDS011;37259;49.972;19.850;2023-08-12T00:46:43;10.1;;;6.5;;
51194;SDS011;37259;49.972;19.850;2023-08-12T00:47:43;10.1;;;6.5;;
51194;SDS011;37259;49.972;19.850;2023-08-12T00:48:43;10.1;;;6.5;;
51194;SDS011;37259;49.972;19.850;2023-08-12T00:49:43;10.1;;;6.5;;
51194;SDS011;37259;49.972;19.850;2023-08-12T00:50:43;10.1;;;6.5;;
51194;SDS011;37259;49.972;19.850;2023-08-12T00:51:43;10.1;;;6.5;;
51194;SDS011;37259;49.972;19.850;2023-08-12T00:52:43;10.1;;;6.5;;
51194;SDS011;37259;49.972;19.850;2023-08-12T00:53:43;10.1;;;6.5;;
51194;SDS011;37259;49.972;19.850;2023-08-12T00:54:43;10.1;;;6.5;;
51194;SDS011;37259;49.972;19.850;2023-08-12T00:55:43;10.1;;;6.5;;
51194;SDS011;37259;49.972;19.850;2023-08-12T00:56:43;10.1;;;6.5;;
51194;SDS011;37259;49.972;19.850;2023-08-12T00:57:43;10.1;;;6.5;;
51194;SDS011;37259;49.972;19.850;2023-08-12T00:58:43;10.1;;;6.5;;
51194;SDS011;37259;49.972;19.850;2023-08-12T00:59:43;10.1;;;6.5;;
51194;SDS011;37259;49.972;19.850;2023-08-12T01:00:43;10.1;;;6.5;;
51194;SDS011;37259;49.972;19.850;2023-08-12T01:01:43;10.1;;;6.5;;
51194;SDS011;37259;49.972;19.850;2023-08-12T01:02:44;10.1;;;6.5;;
51194;SDS011;37259;49.972;19.850;2023-08-12T01:03:43;10.1;;;6.5;;
51194;SDS011;37259;49.972;19.850;2023-08-12T01:04:43;10.1;;;6.5;;
51194;SDS011;37259;49.972;19.850;2023-08-12T01:05:43;10.1;;;6.5;;
51194;SDS011;37259;49.972;19.850;2023-08-12T01:06:43;10.1;;;6.5;;
51194;SDS011;37259;49.972;19.850;2023-08-12T01:07:43;10.1;;;6.5;;
51194;SDS011;37259;49.972;19.850;2023-08-12T01:08:43;10.1;;;6.5;;
51194;SDS011;37259;49.972;19.850;2023-08-12T01:09:43;10.1;;;6.5;;
51194;SDS011;37259;49.972;19.850;2023-08-12T01:10:45;10.1;;;6.5;;
51194;SDS011;37259;49.972;19.850;2023-08-12T01:11:47;10.1;;;6.5;;
51194;SDS011;37259;49.972;19.850;2023-08-12T01:12:45;10.1;;;6.5;;
51194;SDS011;37259;49.972;19.850;2023-08-12T01:13:44;8.1;;;5.8;;
51194;SDS011;37259;49.972;19.850;2023-08-12T01:14:45;8.1;;;5.8;;
51194;SDS011;37259;49.972;19.850;2023-08-12T01:15:43;8.1;;;5.8;;
51194;SDS011;37259;49.972;19.850;2023-08-12T01:16:44;8.1;;;5.8;;
51194;SDS011;37259;49.972;19.850;2023-08-12T01:17:43;8.1;;;5.8;;
51194;SDS011;37259;49.972;19.850;2023-08-12T01:18:43;8.1;;;5.8;;
51194;SDS011;37259;49.972;19.850;2023-08-12T01:19:43;8.1;;;5.8;;
51194;SDS011;37259;49.972;19.850;2023-08-12T01:20:43;8.1;;;5.8;;
51194;SDS011;37259;49.972;19.850;2023-08-12T01:21:43;8.1;;;5.8;;
51194;SDS011;37259;49.972;19.850;2023-08-12T01:22:44;8.1;;;5.8;;
51194;SDS011;37259;49.972;19.850;2023-08-12T01:23:44;8.1;;;5.8;;
51194;SDS011;37259;49.972;19.850;2023-08-12T01:24:43;8.1;;;5.8;;
51194;SDS011;37259;49.972;19.850;2023-08-12T01:25:43;8.1;;;5.8;;
51194;SDS011;37259;49.972;19.850;2023-08-12T01:26:43;8.1;;;5.8;;
51194;SDS011;37259;49.972;19.850;2023-08-12T01:27:43;8.1;;;5.8;;
51194;SDS011;37259;49.972;19.850;2023-08-12T01:28:43;8.1;;;5.8;;
51194;SDS011;37259;49.972;19.850;2023-08-12T01:29:44;8.1;;;5.8;;
51194;SDS011;37259;49.972;19.850;2023-08-12T01:30:56;8.1;;;5.8;;
51194;SDS011;37259;49.972;19.850;2023-08-12T01:31:45;8.1;;;5.8;;
51194;SDS011;37259;49.972;19.850;2023-08-12T01:32:45;8.1;;;5.8;;
51194;SDS011;37259;49.972;19.850;2023-08-12T01:33:44;8.1;;;5.8;;
51194;SDS011;37259;49.972;19.850;2023-08-12T01:34:44;8.1;;;5.8;;
51194;SDS011;37259;49.972;19.850;2023-08-12T01:35:44;8.1;;;5.8;;
51194;SDS011;37259;49.972;19.850;2023-08-12T01:36:44;8.1;;;5.8;;
51194;SDS011;37259;49.972;19.850;2023-08-12T01:37:43;8.1;;;5.8;;
51194;SDS011;37259;49.972;19.850;2023-08-12T01:38:43;8.1;;;5.8;;
51194;SDS011;37259;49.972;19.850;2023-08-12T01:39:43;8.1;;;5.8;;
51194;SDS011;37259;49.972;19.850;2023-08-12T01:40:43;8.1;;;5.8;;
51194;SDS011;37259;49.972;19.850;2023-08-12T01:41:43;8.1;;;5.8;;
51194;SDS011;37259;49.972;19.850;2023-08-12T01:42:43;8.1;;;5.8;;
51194;SDS011;37259;49.972;19.850;2023-08-12T01:43:43;7.7;;;4.7;;
51194;SDS011;37259;49.972;19.850;2023-08-12T01:44:43;7.7;;;4.7;;
51194;SDS011;37259;49.972;19.850;2023-08-12T01:45:43;7.7;;;4.7;;
51194;SDS011;37259;49.972;19.850;2023-08-12T01:46:43;7.7;;;4.7;;
51194;SDS011;37259;49.972;19.850;2023-08-12T01:47:43;7.7;;;4.7;;
51194;SDS011;37259;49.972;19.850;2023-08-12T01:48:43;7.7;;;4.7;;
51194;SDS011;37259;49.972;19.850;2023-08-12T01:49:43;7.7;;;4.7;;
51194;SDS011;37259;49.972;19.850;2023-08-12T01:50:43;7.7;;;4.7;;
51194;SDS011;37259;49.972;19.850;2023-08-12T01:51:43;7.7;;;4.7;;
51194;SDS011;37259;49.972;19.850;2023-08-12T01:52:43;7.7;;;4.7;;
51194;SDS011;37259;49.972;19.850;2023-08-12T01:53:43;7.7;;;4.7;;
51194;SDS011;37259;49.972;19.850;2023-08-12T01:54:43;7.7;;;4.7;;
51194;SDS011;37259;49.972;19.850;2023-08-12T01:55:43;7.7;;;4.7;;
51194;SDS011;37259;49.972;19.850;2023-08-12T01:56:43;7.7;;;4.7;;
51194;SDS011;37259;49.972;19.850;2023-08-12T01:57:43;7.7;;;4.7;;
51194;SDS011;37259;49.972;19.850;2023-08-12T01:58:43;7.7;;;4.7;;
51194;SDS011;37259;49.972;19.850;2023-08-12T01:59:43;7.7;;;4.7;;
51194;SDS011;37259;49.972;19.850;2023-08-12T02:00:44;7.7;;;4.7;;
51194;SDS011;37259;49.972;19.850;2023-08-12T02:01:43;7.7;;;4.7;;
51194;SDS011;37259;49.972;19.850;2023-08-12T02:02:43;7.7;;;4.7;;
51194;SDS011;37259;49.972;19.850;2023-08-12T02:03:43;7.7;;;4.7;;
51194;SDS011;37259;49.972;19.850;2023-08-12T02:04:44;7.7;;;4.7;;
51194;SDS011;37259;49.972;19.850;2023-08-12T02:05:43;7.7;;;4.7;;
51194;SDS011;37259;49.972;19.850;2023-08-12T02:06:43;7.7;;;4.7;;
51194;SDS011;37259;49.972;19.850;2023-08-12T02:07:43;7.7;;;4.7;;
51194;SDS011;37259;49.972;19.850;2023-08-12T02:08:43;7.7;;;4.7;;
51194;SDS011;37259;49.972;19.850;2023-08-12T02:09:43;7.7;;;4.7;;
51194;SDS011;37259;49.972;19.850;2023-08-12T02:10:43;7.7;;;4.7;;
51194;SDS011;37259;49.972;19.850;2023-08-12T02:11:43;7.7;;;4.7;;
51194;SDS011;37259;49.972;19.850;2023-08-12T02:12:43;7.7;;;4.7;;
51194;SDS011;37259;49.972;19.850;2023-08-12T02:13:43;9.5;;;5.2;;
51194;SDS011;37259;49.972;19.850;2023-08-12T02:14:43;9.5;;;5.2;;
51194;SDS011;37259;49.972;19.850;2023-08-12T02:15:44;9.5;;;5.2;;
51194;SDS011;37259;49.972;19.850;2023-08-12T02:16:43;9.5;;;5.2;;
51194;SDS011;37259;49.972;19.850;2023-08-12T02:17:43;9.5;;;5.2;;
51194;SDS011;37259;49.972;19.850;2023-08-12T02:18:43;9.5;;;5.2;;
51194;SDS011;37259;49.972;19.850;2023-08-12T02:19:43;9.5;;;5.2;;
51194;SDS011;37259;49.972;19.850;2023-08-12T02:20:44;9.5;;;5.2;;
51194;SDS011;37259;49.972;19.850;2023-08-12T02:21:43;9.5;;;5.2;;
51194;SDS011;37259;49.972;19.850;2023-08-12T02:22:44;9.5;;;5.2;;
51194;SDS011;37259;49.972;19.850;2023-08-12T02:23:43;9.5;;;5.2;;
51194;SDS011;37259;49.972;19.850;2023-08-12T02:24:44;9.5;;;5.2;;
51194;SDS011;37259;49.972;19.850;2023-08-12T02:25:43;9.5;;;5.2;;
51194;SDS011;37259;49.972;19.850;2023-08-12T02:26:43;9.5;;;5.2;;
51194;SDS011;37259;49.972;19.850;2023-08-12T02:27:43;9.5;;;5.2;;
51194;SDS011;37259;49.972;19.850;2023-08-12T02:28:43;9.5;;;5.2;;
51194;SDS011;37259;49.972;19.850;2023-08-12T02:29:43;9.5;;;5.2;;
51194;SDS011;37259;49.972;19.850;2023-08-12T02:30:43;9.5;;;5.2;;
51194;SDS011;37259;49.972;19.850;2023-08-12T02:31:44;9.5;;;5.2;;
51194;SDS011;37259;49.972;19.850;2023-08-12T02:32:43;9.5;;;5.2;;
51194;SDS011;37259;49.972;19.850;2023-08-12T02:33:43;9.5;;;5.2;;
51194;SDS011;37259;49.972;19.850;2023-08-12T02:34:43;9.5;;;5.2;;
51194;SDS011;37259;49.972;19.850;2023-08-12T02:35:43;9.5;;;5.2;;
51194;SDS011;37259;49.972;19.850;2023-08-12T02:36:43;9.5;;;5.2;;
51194;SDS011;37259;49.972;19.850;2023-08-12T02:37:43;9.5;;;5.2;;
51194;SDS011;37259;49.972;19.850;2023-08-12T02:38:43;9.5;;;5.2;;
51194;SDS011;37259;49.972;19.850;2023-08-12T02:39:43;9.5;;;5.2;;
51194;SDS011;37259;49.972;19.850;2023-08-12T02:40:43;9.5;;;5.2;;
51194;SDS011;37259;49.972;19.850;2023-08-12T02:41:43;9.5;;;5.2;;
51194;SDS011;37259;49.972;19.850;2023-08-12T02:42:43;9.5;;;5.2;;
51194;SDS011;37259;49.972;19.850;2023-08-12T02:43:43;6;;;3.5;;
51194;SDS011;37259;49.972;19.850;2023-08-12T02:44:43;6;;;3.5;;
51194;SDS011;37259;49.972;19.850;2023-08-12T02:45:43;6;;;3.5;;
51194;SDS011;37259;49.972;19.850;2023-08-12T02:46:43;6;;;3.5;;
51194;SDS011;37259;49.972;19.850;2023-08-12T02:47:43;6;;;3.5;;
51194;SDS011;37259;49.972;19.850;2023-08-12T02:48:43;6;;;3.5;;
51194;SDS011;37259;49.972;19.850;2023-08-12T02:49:43;6;;;3.5;;
51194;SDS011;37259;49.972;19.850;2023-08-12T02:50:43;6;;;3.5;;
51194;SDS011;37259;49.972;19.850;2023-08-12T02:51:43;6;;;3.5;;
51194;SDS011;37259;49.972;19.850;2023-08-12T02:52:43;6;;;3.5;;
51194;SDS011;37259;49.972;19.850;2023-08-12T02:53:43;6;;;3.5;;
51194;SDS011;37259;49.972;19.850;2023-08-12T02:54:43;6;;;3.5;;
51194;SDS011;37259;49.972;19.850;2023-08-12T02:55:44;6;;;3.5;;
51194;SDS011;37259;49.972;19.850;2023-08-12T02:56:43;6;;;3.5;;
51194;SDS011;37259;49.972;19.850;2023-08-12T02:57:43;6;;;3.5;;
51194;SDS011;37259;49.972;19.850;2023-08-12T02:58:43;6;;;3.5;;
51194;SDS011;37259;49.972;19.850;2023-08-12T02:59:44;6;;;3.5;;
51194;SDS011;37259;49.972;19.850;2023-08-12T03:00:43;6;;;3.5;;
51194;SDS011;37259;49.972;19.850;2023-08-12T03:01:43;6;;;3.5;;
51194;SDS011;37259;49.972;19.850;2023-08-12T03:02:43;6;;;3.5;;
51194;SDS011;37259;49.972;19.850;2023-08-12T03:03:43;6;;;3.5;;
51194;SDS011;37259;49.972;19.850;2023-08-12T03:04:43;6;;;3.5;;
51194;SDS011;37259;49.972;19.850;2023-08-12T03:05:45;6;;;3.5;;
51194;SDS011;37259;49.972;19.850;2023-08-12T03:06:43;6;;;3.5;;
51194;SDS011;37259;49.972;19.850;2023-08-12T03:07:44;6;;;3.5;;
51194;SDS011;37259;49.972;19.850;2023-08-12T03:08:43;6;;;3.5;;
51194;SDS011;37259;49.972;19.850;2023-08-12T03:09:43;6;;;3.5;;
51194;SDS011;37259;49.972;19.850;2023-08-12T03:10:44;6;;;3.5;;
51194;SDS011;37259;49.972;19.850;2023-08-12T03:11:43;6;;;3.5;;
51194;SDS011;37259;49.972;19.850;2023-08-12T03:12:43;6;;;3.5;;
51194;SDS011;37259;49.972;19.850;2023-08-12T03:13:43;7.5;;;3.6;;
51194;SDS011;37259;49.972;19.850;2023-08-12T03:14:43;7.5;;;3.6;;
51194;SDS011;37259;49.972;19.850;2023-08-12T03:15:44;7.5;;;3.6;;
51194;SDS011;37259;49.972;19.850;2023-08-12T03:16:43;7.5;;;3.6;;
51194;SDS011;37259;49.972;19.850;2023-08-12T03:17:43;7.5;;;3.6;;
51194;SDS011;37259;49.972;19.850;2023-08-12T03:18:43;7.5;;;3.6;;
51194;SDS011;37259;49.972;19.850;2023-08-12T03:19:43;7.5;;;3.6;;
51194;SDS011;37259;49.972;19.850;2023-08-12T03:20:43;7.5;;;3.6;;
51194;SDS011;37259;49.972;19.850;2023-08-12T03:21:43;7.5;;;3.6;;
51194;SDS011;37259;49.972;19.850;2023-08-12T03:22:43;7.5;;;3.6;;
51194;SDS011;37259;49.972;19.850;2023-08-12T03:23:43;7.5;;;3.6;;
51194;SDS011;37259;49.972;19.850;2023-08-12T03:24:43;7.5;;;3.6;;
51194;SDS011;37259;49.972;19.850;2023-08-12T03:25:43;7.5;;;3.6;;
51194;SDS011;37259;49.972;19.850;2023-08-12T03:26:43;7.5;;;3.6;;
51194;SDS011;37259;49.972;19.850;2023-08-12T03:27:43;7.5;;;3.6;;
51194;SDS011;37259;49.972;19.850;2023-08-12T03:28:43;7.5;;;3.6;;
51194;SDS011;37259;49.972;19.850;2023-08-12T03:29:43;7.5;;;3.6;;
51194;SDS011;37259;49.972;19.850;2023-08-12T03:30:49;7.5;;;3.6;;
51194;SDS011;37259;49.972;19.850;2023-08-12T03:31:43;7.5;;;3.6;;
51194;SDS011;37259;49.972;19.850;2023-08-12T03:32:43;7.5;;;3.6;;
51194;SDS011;37259;49.972;19.850;2023-08-12T03:33:57;7.5;;;3.6;;
51194;SDS011;37259;49.972;19.850;2023-08-12T03:34:44;7.5;;;3.6;;
51194;SDS011;37259;49.972;19.850;2023-08-12T03:35:44;7.5;;;3.6;;
51194;SDS011;37259;49.972;19.850;2023-08-12T03:36:44;7.5;;;3.6;;
51194;SDS011;37259;49.972;19.850;2023-08-12T03:37:44;7.5;;;3.6;;
51194;SDS011;37259;49.972;19.850;2023-08-12T03:38:44;7.5;;;3.6;;
51194;SDS011;37259;49.972;19.850;2023-08-12T03:39:44;7.5;;;3.6;;
51194;SDS011;37259;49.972;19.850;2023-08-12T03:40:44;7.5;;;3.6;;
51194;SDS011;37259;49.972;19.850;2023-08-12T03:41:44;7.5;;;3.6;;
51194;SDS011;37259;49.972;19.850;2023-08-12T03:42:44;7.5;;;3.6;;
51194;SDS011;37259;49.972;19.850;2023-08-12T03:43:44;6.2;;;3.6;;
51194;SDS011;37259;49.972;19.850;2023-08-12T03:44:44;6.2;;;3.6;;
51194;SDS011;37259;49.972;19.850;2023-08-12T03:45:44;6.2;;;3.6;;
51194;SDS011;37259;49.972;19.850;2023-08-12T03:46:44;6.2;;;3.6;;
51194;SDS011;37259;49.972;19.850;2023-08-12T03:47:44;6.2;;;3.6;;
51194;SDS011;37259;49.972;19.850;2023-08-12T03:48:44;6.2;;;3.6;;
51194;SDS011;37259;49.972;19.850;2023-08-12T03:49:44;6.2;;;3.6;;
51194;SDS011;37259;49.972;19.850;2023-08-12T03:50:44;6.2;;;3.6;;
51194;SDS011;37259;49.972;19.850;2023-08-12T03:51:44;6.2;;;3.6;;
51194;SDS011;37259;49.972;19.850;2023-08-12T03:52:44;6.2;;;3.6;;
51194;SDS011;37259;49.972;19.850;2023-08-12T03:53:44;6.2;;;3.6;;
51194;SDS011;37259;49.972;19.850;2023-08-12T03:54:44;6.2;;;3.6;;
51194;SDS011;37259;49.972;19.850;2023-08-12T03:55:44;6.2;;;3.6;;
51194;SDS011;37259;49.972;19.850;2023-08-12T03:56:44;6.2;;;3.6;;
51194;SDS011;37259;49.972;19.850;2023-08-12T03:57:44;6.2;;;3.6;;
51194;SDS011;37259;49.972;19.850;2023-08-12T03:58:44;6.2;;;3.6;;
51194;SDS011;37259;49.972;19.850;2023-08-12T03:59:44;6.2;;;3.6;;
51194;SDS011;37259;49.972;19.850;2023-08-12T04:00:44;6.2;;;3.6;;
51194;SDS011;37259;49.972;19.850;2023-08-12T04:01:44;6.2;;;3.6;;
51194;SDS011;37259;49.972;19.850;2023-08-12T04:02:44;6.2;;;3.6;;
51194;SDS011;37259;49.972;19.850;2023-08-12T04:03:44;6.2;;;3.6;;
51194;SDS011;37259;49.972;19.850;2023-08-12T04:04:44;6.2;;;3.6;;
51194;SDS011;37259;49.972;19.850;2023-08-12T04:05:48;6.2;;;3.6;;
51194;SDS011;37259;49.972;19.850;2023-08-12T04:06:44;6.2;;;3.6;;
51194;SDS011;37259;49.972;19.850;2023-08-12T04:07:44;6.2;;;3.6;;
51194;SDS011;37259;49.972;19.850;2023-08-12T04:08:44;6.2;;;3.6;;
51194;SDS011;37259;49.972;19.850;2023-08-12T04:09:44;6.2;;;3.6;;
51194;SDS011;37259;49.972;19.850;2023-08-12T04:10:45;6.2;;;3.6;;
51194;SDS011;37259;49.972;19.850;2023-08-12T04:11:45;6.2;;;3.6;;
51194;SDS011;37259;49.972;19.850;2023-08-12T04:12:44;9.5;;;4.3;;
51194;SDS011;37259;49.972;19.850;2023-08-12T04:13:44;9.5;;;4.3;;
51194;SDS011;37259;49.972;19.850;2023-08-12T04:14:44;9.5;;;4.3;;
51194;SDS011;37259;49.972;19.850;2023-08-12T04:15:47;9.5;;;4.3;;
51194;SDS011;37259;49.972;19.850;2023-08-12T04:16:44;9.5;;;4.3;;
51194;SDS011;37259;49.972;19.850;2023-08-12T04:17:44;9.5;;;4.3;;
51194;SDS011;37259;49.972;19.850;2023-08-12T04:18:44;9.5;;;4.3;;
51194;SDS011;37259;49.972;19.850;2023-08-12T04:19:44;9.5;;;4.3;;
51194;SDS011;37259;49.972;19.850;2023-08-12T04:20:44;9.5;;;4.3;;
51194;SDS011;37259;49.972;19.850;2023-08-12T04:21:44;9.5;;;4.3;;
51194;SDS011;37259;49.972;19.850;2023-08-12T04:22:44;9.5;;;4.3;;
51194;SDS011;37259;49.972;19.850;2023-08-12T04:23:44;9.5;;;4.3;;
51194;SDS011;37259;49.972;19.850;2023-08-12T04:24:44;9.5;;;4.3;;
51194;SDS011;37259;49.972;19.850;2023-08-12T04:25:44;9.5;;;4.3;;
51194;SDS011;37259;49.972;19.850;2023-08-12T04:26:44;9.5;;;4.3;;
51194;SDS011;37259;49.972;19.850;2023-08-12T04:27:44;9.5;;;4.3;;
51194;SDS011;37259;49.972;19.850;2023-08-12T04:28:44;9.5;;;4.3;;
51194;SDS011;37259;49.972;19.850;2023-08-12T04:29:45;9.5;;;4.3;;
51194;SDS011;37259;49.972;19.850;2023-08-12T04:30:44;9.5;;;4.3;;
51194;SDS011;37259;49.972;19.850;2023-08-12T04:31:44;9.5;;;4.3;;
51194;SDS011;37259;49.972;19.850;2023-08-12T04:32:44;9.5;;;4.3;;
51194;SDS011;37259;49.972;19.850;2023-08-12T04:33:44;9.5;;;4.3;;
51194;SDS011;37259;49.972;19.850;2023-08-12T04:34:45;9.5;;;4.3;;
51194;SDS011;37259;49.972;19.850;2023-08-12T04:35:44;9.5;;;4.3;;
51194;SDS011;37259;49.972;19.850;2023-08-12T04:36:44;9.5;;;4.3;;
51194;SDS011;37259;49.972;19.850;2023-08-12T04:37:44;9.5;;;4.3;;
51194;SDS011;37259;49.972;19.850;2023-08-12T04:38:44;9.5;;;4.3;;
51194;SDS011;37259;49.972;19.850;2023-08-12T04:39:44;9.5;;;4.3;;
51194;SDS011;37259;49.972;19.850;2023-08-12T04:40:44;9.5;;;4.3;;
51194;SDS011;37259;49.972;19.850;2023-08-12T04:41:44;9.5;;;4.3;;
51194;SDS011;37259;49.972;19.850;2023-08-12T04:42:44;7;;;4.1;;
51194;SDS011;37259;49.972;19.850;2023-08-12T04:43:44;7;;;4.1;;
51194;SDS011;37259;49.972;19.850;2023-08-12T04:44:44;7;;;4.1;;
51194;SDS011;37259;49.972;19.850;2023-08-12T04:45:44;7;;;4.1;;
51194;SDS011;37259;49.972;19.850;2023-08-12T04:46:44;7;;;4.1;;
51194;SDS011;37259;49.972;19.850;2023-08-12T04:47:44;7;;;4.1;;
51194;SDS011;37259;49.972;19.850;2023-08-12T04:48:44;7;;;4.1;;
51194;SDS011;37259;49.972;19.850;2023-08-12T04:49:44;7;;;4.1;;
51194;SDS011;37259;49.972;19.850;2023-08-12T04:50:44;7;;;4.1;;
51194;SDS011;37259;49.972;19.850;2023-08-12T04:51:44;7;;;4.1;;
51194;SDS011;37259;49.972;19.850;2023-08-12T04:52:44;7;;;4.1;;
51194;SDS011;37259;49.972;19.850;2023-08-12T04:53:44;7;;;4.1;;
51194;SDS011;37259;49.972;19.850;2023-08-12T04:54:44;7;;;4.1;;
51194;SDS011;37259;49.972;19.850;2023-08-12T04:55:44;7;;;4.1;;
51194;SDS011;37259;49.972;19.850;2023-08-12T04:56:44;7;;;4.1;;
51194;SDS011;37259;49.972;19.850;2023-08-12T04:57:44;7;;;4.1;;
51194;SDS011;37259;49.972;19.850;2023-08-12T04:58:44;7;;;4.1;;
51194;SDS011;37259;49.972;19.850;2023-08-12T04:59:44;7;;;4.1;;
51194;SDS011;37259;49.972;19.850;2023-08-12T05:00:44;7;;;4.1;;
51194;SDS011;37259;49.972;19.850;2023-08-12T05:01:44;7;;;4.1;;
51194;SDS011;37259;49.972;19.850;2023-08-12T05:02:44;7;;;4.1;;
51194;SDS011;37259;49.972;19.850;2023-08-12T05:03:44;7;;;4.1;;
51194;SDS011;37259;49.972;19.850;2023-08-12T05:04:46;7;;;4.1;;
51194;SDS011;37259;49.972;19.850;2023-08-12T05:05:47;7;;;4.1;;
51194;SDS011;37259;49.972;19.850;2023-08-12T05:06:44;7;;;4.1;;
51194;SDS011;37259;49.972;19.850;2023-08-12T05:07:44;7;;;4.1;;
51194;SDS011;37259;49.972;19.850;2023-08-12T05:08:44;7;;;4.1;;
51194;SDS011;37259;49.972;19.850;2023-08-12T05:09:44;7;;;4.1;;
51194;SDS011;37259;49.972;19.850;2023-08-12T05:10:46;7;;;4.1;;
51194;SDS011;37259;49.972;19.850;2023-08-12T05:11:44;7;;;4.1;;
51194;SDS011;37259;49.972;19.850;2023-08-12T05:12:44;9;;;5.7;;
51194;SDS011;37259;49.972;19.850;2023-08-12T05:13:44;9;;;5.7;;
51194;SDS011;37259;49.972;19.850;2023-08-12T05:14:44;9;;;5.7;;
51194;SDS011;37259;49.972;19.850;2023-08-12T05:15:45;9;;;5.7;;
51194;SDS011;37259;49.972;19.850;2023-08-12T05:16:44;9;;;5.7;;
51194;SDS011;37259;49.972;19.850;2023-08-12T05:17:44;9;;;5.7;;
51194;SDS011;37259;49.972;19.850;2023-08-12T05:18:44;9;;;5.7;;
51194;SDS011;37259;49.972;19.850;2023-08-12T05:19:44;9;;;5.7;;
51194;SDS011;37259;49.972;19.850;2023-08-12T05:20:44;9;;;5.7;;
51194;SDS011;37259;49.972;19.850;2023-08-12T05:21:44;9;;;5.7;;
51194;SDS011;37259;49.972;19.850;2023-08-12T05:22:44;9;;;5.7;;
51194;SDS011;37259;49.972;19.850;2023-08-12T05:23:44;9;;;5.7;;
51194;SDS011;37259;49.972;19.850;2023-08-12T05:24:44;9;;;5.7;;
51194;SDS011;37259;49.972;19.850;2023-08-12T05:25:44;9;;;5.7;;
51194;SDS011;37259;49.972;19.850;2023-08-12T05:26:44;9;;;5.7;;
51194;SDS011;37259;49.972;19.850;2023-08-12T05:27:44;9;;;5.7;;
51194;SDS011;37259;49.972;19.850;2023-08-12T05:28:44;9;;;5.7;;
51194;SDS011;37259;49.972;19.850;2023-08-12T05:29:44;9;;;5.7;;
51194;SDS011;37259;49.972;19.850;2023-08-12T05:30:44;9;;;5.7;;
51194;SDS011;37259;49.972;19.850;2023-08-12T05:31:44;9;;;5.7;;
51194;SDS011;37259;49.972;19.850;2023-08-12T05:32:44;9;;;5.7;;
51194;SDS011;37259;49.972;19.850;2023-08-12T05:33:44;9;;;5.7;;
51194;SDS011;37259;49.972;19.850;2023-08-12T05:34:44;9;;;5.7;;
51194;SDS011;37259;49.972;19.850;2023-08-12T05:35:46;9;;;5.7;;
51194;SDS011;37259;49.972;19.850;2023-08-12T05:36:44;9;;;5.7;;
51194;SDS011;37259;49.972;19.850;2023-08-12T05:37:44;9;;;5.7;;
51194;SDS011;37259;49.972;19.850;2023-08-12T05:38:44;9;;;5.7;;
51194;SDS011;37259;49.972;19.850;2023-08-12T05:39:44;9;;;5.7;;
51194;SDS011;37259;49.972;19.850;2023-08-12T05:40:44;9;;;5.7;;
51194;SDS011;37259;49.972;19.850;2023-08-12T05:41:44;9;;;5.7;;
51194;SDS011;37259;49.972;19.850;2023-08-12T05:42:44;9.3;;;6.2;;
51194;SDS011;37259;49.972;19.850;2023-08-12T05:43:44;9.3;;;6.2;;
51194;SDS011;37259;49.972;19.850;2023-08-12T05:44:44;9.3;;;6.2;;
51194;SDS011;37259;49.972;19.850;2023-08-12T05:45:44;9.3;;;6.2;;
51194;SDS011;37259;49.972;19.850;2023-08-12T05:46:44;9.3;;;6.2;;
51194;SDS011;37259;49.972;19.850;2023-08-12T05:47:44;9.3;;;6.2;;
51194;SDS011;37259;49.972;19.850;2023-08-12T05:48:44;9.3;;;6.2;;
51194;SDS011;37259;49.972;19.850;2023-08-12T05:49:44;9.3;;;6.2;;
51194;SDS011;37259;49.972;19.850;2023-08-12T05:50:44;9.3;;;6.2;;
51194;SDS011;37259;49.972;19.850;2023-08-12T05:51:44;9.3;;;6.2;;
51194;SDS011;37259;49.972;19.850;2023-08-12T05:52:44;9.3;;;6.2;;
51194;SDS011;37259;49.972;19.850;2023-08-12T05:53:44;9.3;;;6.2;;
51194;SDS011;37259;49.972;19.850;2023-08-12T05:54:44;9.3;;;6.2;;
51194;SDS011;37259;49.972;19.850;2023-08-12T05:55:44;9.3;;;6.2;;
51194;SDS011;37259;49.972;19.850;2023-08-12T05:56:44;9.3;;;6.2;;
51194;SDS011;37259;49.972;19.850;2023-08-12T05:57:44;9.3;;;6.2;;
51194;SDS011;37259;49.972;19.850;2023-08-12T05:58:44;9.3;;;6.2;;
51194;SDS011;37259;49.972;19.850;2023-08-12T05:59:44;9.3;;;6.2;;
51194;SDS011;37259;49.972;19.850;2023-08-12T06:00:44;9.3;;;6.2;;
51194;SDS011;37259;49.972;19.850;2023-08-12T06:01:44;9.3;;;6.2;;
51194;SDS011;37259;49.972;19.850;2023-08-12T06:02:44;9.3;;;6.2;;
51194;SDS011;37259;49.972;19.850;2023-08-12T06:03:44;9.3;;;6.2;;
51194;SDS011;37259;49.972;19.850;2023-08-12T06:04:44;9.3;;;6.2;;
51194;SDS011;37259;49.972;19.850;2023-08-12T06:05:45;9.3;;;6.2;;
51194;SDS011;37259;49.972;19.850;2023-08-12T06:06:44;9.3;;;6.2;;
51194;SDS011;37259;49.972;19.850;2023-08-12T06:07:44;9.3;;;6.2;;
51194;SDS011;37259;49.972;19.850;2023-08-12T06:08:44;9.3;;;6.2;;
51194;SDS011;37259;49.972;19.850;2023-08-12T06:09:44;9.3;;;6.2;;
51194;SDS011;37259;49.972;19.850;2023-08-12T06:10:44;9.3;;;6.2;;